Time;durP1;ratioP1;P1;durP2;ratioP2;P2;SDS_P1;SDS_P2;PMS_P1;PMS_P2;Temp;Humidity;BMP_temperature;BMP_pressure;BME280_temperature;BME280_humidity;BME280_pressure;Samples;Min_cycle;Max_cycle;Signal;HPM_P1;HPM_P2
2022/01/31 00:00:49;;;;;;;5.18;3.90;;;1.50;99.90;;;;;;459851;258;27546;-70
2022/01/31 00:02:50;;;;;;;5.72;3.50;;;1.50;99.90;;;;;;459867;258;27477;-76
2022/01/31 00:04:51;;;;;;;4.10;3.42;;;1.50;99.90;;;;;;459854;258;27575;-70
2022/01/31 00:06:53;;;;;;;5.82;3.87;;;1.40;99.90;;;;;;459859;258;27526;-70
2022/01/31 00:08:54;;;;;;;4.68;3.50;;;1.50;99.90;;;;;;459866;258;27510;-70
2022/01/31 00:10:55;;;;;;;4.47;4.07;;;1.50;99.90;;;;;;459870;258;27607;-70
2022/01/31 00:13:06;;;;;;;4.68;3.28;;;1.50;99.90;;;;;;459876;258;27548;-70
2022/01/31 00:15:04;;;;;;;4.65;3.80;;;1.50;99.90;;;;;;459920;258;27971;-69
2022/01/31 00:17:04;;;;;;;5.72;3.67;;;1.50;99.90;;;;;;459870;258;27969;-70
2022/01/31 00:19:06;;;;;;;7.28;3.58;;;1.50;99.90;;;;;;459844;258;28014;-70
2022/01/31 00:21:07;;;;;;;4.90;3.62;;;1.50;99.90;;;;;;459864;258;27507;-70
2022/01/31 00:23:08;;;;;;;8.18;3.50;;;1.60;99.90;;;;;;459871;258;27460;-70
2022/01/31 00:25:09;;;;;;;4.30;3.08;;;1.50;99.90;;;;;;459836;258;27571;-70
2022/01/31 00:27:11;;;;;;;6.37;3.75;;;1.50;99.90;;;;;;459851;258;27561;-70
2022/01/31 00:29:12;;;;;;;7.43;3.33;;;1.60;99.90;;;;;;459878;258;27566;-70
2022/01/31 00:31:13;;;;;;;3.92;3.30;;;1.60;99.90;;;;;;459878;258;27519;-70
2022/01/31 00:33:14;;;;;;;5.72;3.50;;;1.60;99.90;;;;;;459848;258;27665;-71
2022/01/31 00:35:16;;;;;;;7.43;3.70;;;1.60;99.90;;;;;;459874;258;27915;-70
2022/01/31 00:37:17;;;;;;;9.25;4.20;;;1.60;99.90;;;;;;459872;258;27554;-70
2022/01/31 00:39:18;;;;;;;5.80;3.50;;;1.60;99.90;;;;;;459862;258;27617;-70
2022/01/31 00:41:20;;;;;;;4.93;3.55;;;1.60;99.90;;;;;;459884;258;28058;-70
2022/01/31 00:43:21;;;;;;;5.62;3.70;;;1.60;99.90;;;;;;459861;258;27934;-70
2022/01/31 00:45:27;;;;;;;8.00;3.83;;;1.60;99.90;;;;;;459864;258;28084;-70
2022/01/31 00:47:30;;;;;;;11.15;4.03;;;1.60;99.90;;;;;;459845;258;27494;-69
2022/01/31 00:49:37;;;;;;;5.82;3.78;;;1.60;99.90;;;;;;459887;258;27596;-70
2022/01/31 00:51:29;;;;;;;12.50;4.45;;;1.60;99.90;;;;;;459906;258;27475;-70
2022/01/31 00:53:30;;;;;;;5.10;3.92;;;1.60;99.90;;;;;;459862;258;27494;-70
2022/01/31 00:55:31;;;;;;;6.93;3.85;;;1.70;99.90;;;;;;459865;258;27482;-71
2022/01/31 00:57:32;;;;;;;5.07;4.05;;;1.70;99.90;;;;;;459867;258;27587;-70
2022/01/31 00:59:34;;;;;;;6.95;3.75;;;1.70;99.90;;;;;;460361;258;27530;-70
2022/01/31 01:01:35;;;;;;;6.50;4.45;;;1.70;99.90;;;;;;459880;258;27480;-70
2022/01/31 01:03:36;;;;;;;8.35;4.12;;;1.70;99.90;;;;;;459863;258;27515;-70
2022/01/31 01:05:37;;;;;;;8.38;3.78;;;1.70;99.90;;;;;;459873;258;27930;-70
2022/01/31 01:07:39;;;;;;;8.85;4.32;;;1.70;99.90;;;;;;459879;258;27975;-70
2022/01/31 01:09:41;;;;;;;9.43;5.07;;;1.70;99.90;;;;;;459913;258;27994;-70
2022/01/31 01:11:41;;;;;;;8.68;4.20;;;1.70;99.90;;;;;;459892;258;27994;-70
2022/01/31 01:13:42;;;;;;;9.52;4.28;;;1.70;99.90;;;;;;459886;258;27495;-70
2022/01/31 01:15:44;;;;;;;11.32;4.40;;;1.70;99.90;;;;;;459688;258;27504;-70
2022/01/31 01:17:46;;;;;;;8.32;4.10;;;1.70;99.90;;;;;;459879;258;27554;-70
2022/01/31 01:19:46;;;;;;;6.78;4.10;;;1.70;99.90;;;;;;459881;258;27507;-70
2022/01/31 01:21:48;;;;;;;9.35;3.90;;;1.70;99.90;;;;;;459856;258;27572;-70
2022/01/31 01:23:49;;;;;;;7.37;4.60;;;1.70;99.90;;;;;;459849;258;27515;-70
2022/01/31 01:25:51;;;;;;;6.65;3.75;;;1.70;99.90;;;;;;459851;258;27543;-70
2022/01/31 01:27:53;;;;;;;7.32;4.03;;;1.70;99.90;;;;;;459869;258;27455;-70
2022/01/31 01:29:53;;;;;;;6.50;4.07;;;1.60;99.90;;;;;;459861;258;27486;-70
2022/01/31 01:31:54;;;;;;;10.98;4.12;;;1.70;99.90;;;;;;459851;258;27479;-70
2022/01/31 01:33:55;;;;;;;11.35;4.20;;;1.70;99.90;;;;;;459848;258;28090;-70
2022/01/31 01:35:56;;;;;;;6.55;3.47;;;1.70;99.90;;;;;;459863;258;28053;-70
2022/01/31 01:37:59;;;;;;;11.40;4.65;;;1.70;99.90;;;;;;459875;258;28310;-69
2022/01/31 01:39:59;;;;;;;6.70;4.15;;;1.80;99.90;;;;;;459854;258;27531;-69
2022/01/31 01:42:00;;;;;;;11.00;3.47;;;1.70;99.90;;;;;;459847;258;27475;-70
2022/01/31 01:44:01;;;;;;;6.50;4.15;;;1.70;99.90;;;;;;459851;258;27573;-70
2022/01/31 01:46:03;;;;;;;7.68;3.45;;;1.70;99.90;;;;;;459867;258;27495;-70
2022/01/31 01:48:06;;;;;;;5.85;3.95;;;1.70;99.90;;;;;;459901;258;27506;-70
2022/01/31 01:50:05;;;;;;;7.50;4.10;;;1.80;99.90;;;;;;459870;258;27574;-70
2022/01/31 01:52:06;;;;;;;5.07;3.65;;;1.80;99.90;;;;;;459862;258;27464;-70
2022/01/31 01:54:08;;;;;;;13.55;4.40;;;1.80;99.90;;;;;;459863;258;27589;-70
2022/01/31 01:56:09;;;;;;;4.43;3.67;;;1.80;99.90;;;;;;459890;258;27507;-70
2022/01/31 01:58:15;;;;;;;9.13;3.65;;;1.80;99.90;;;;;;459900;258;27920;-70
2022/01/31 02:00:16;;;;;;;9.50;4.40;;;1.80;99.90;;;;;;459868;258;28110;-70
2022/01/31 02:02:13;;;;;;;11.43;4.95;;;1.80;99.90;;;;;;459862;258;28024;-70
2022/01/31 02:04:14;;;;;;;10.15;4.57;;;1.80;99.90;;;;;;459821;258;27492;-69
2022/01/31 02:06:15;;;;;;;10.73;4.95;;;1.80;99.90;;;;;;459898;258;27501;-70
2022/01/31 02:08:20;;;;;;;13.68;4.90;;;1.80;99.90;;;;;;459895;258;27472;-70
2022/01/31 02:10:21;;;;;;;7.80;4.28;;;1.80;99.90;;;;;;459863;258;28018;-70
2022/01/31 02:12:24;;;;;;;9.30;5.25;;;1.90;99.90;;;;;;459861;258;28270;-70
2022/01/31 02:14:23;;;;;;;10.90;4.87;;;1.80;99.90;;;;;;459838;258;27495;-70
2022/01/31 02:16:24;;;;;;;9.70;4.60;;;1.90;99.90;;;;;;459860;258;27503;-70
2022/01/31 02:18:28;;;;;;;12.93;5.12;;;1.90;99.90;;;;;;459844;258;27521;-70
2022/01/31 02:20:27;;;;;;;10.05;4.65;;;1.90;99.90;;;;;;459837;258;27561;-70
2022/01/31 02:22:28;;;;;;;14.45;6.00;;;1.90;99.90;;;;;;459864;258;27502;-70
2022/01/31 02:24:30;;;;;;;11.77;5.05;;;1.90;99.90;;;;;;459874;258;27579;-70
2022/01/31 02:26:31;;;;;;;8.00;4.70;;;1.90;99.90;;;;;;459875;258;27554;-70
2022/01/31 02:28:32;;;;;;;13.57;5.10;;;1.90;99.90;;;;;;459883;258;27986;-70
2022/01/31 02:30:33;;;;;;;7.95;5.20;;;1.90;99.90;;;;;;459853;258;28665;-70
2022/01/31 02:32:34;;;;;;;9.10;4.90;;;1.90;99.90;;;;;;459872;258;28009;-70
2022/01/31 02:34:36;;;;;;;10.98;5.15;;;1.90;99.90;;;;;;459881;258;28074;-69
2022/01/31 02:36:37;;;;;;;10.38;4.80;;;1.90;99.90;;;;;;459881;258;27519;-70
2022/01/31 02:38:38;;;;;;;10.00;5.55;;;1.90;99.90;;;;;;459878;258;27597;-70
2022/01/31 02:40:39;;;;;;;11.05;6.15;;;1.90;99.90;;;;;;459906;258;27625;-70
2022/01/31 02:42:41;;;;;;;11.00;5.78;;;1.90;99.90;;;;;;459886;258;27475;-69
2022/01/31 02:44:42;;;;;;;13.62;5.90;;;1.90;99.90;;;;;;459890;258;27537;-70
2022/01/31 02:46:54;;;;;;;9.30;4.95;;;2.00;99.90;;;;;;459881;258;27497;-70
2022/01/31 02:48:44;;;;;;;8.27;5.07;;;2.00;99.90;;;;;;459204;258;27579;-70
2022/01/31 02:50:46;;;;;;;8.63;5.10;;;2.00;99.90;;;;;;459885;258;27969;-70
2022/01/31 02:52:56;;;;;;;14.68;5.20;;;2.00;99.90;;;;;;459878;258;27923;-70
2022/01/31 02:54:48;;;;;;;10.00;5.50;;;2.00;99.90;;;;;;459878;258;28041;-70
2022/01/31 02:56:49;;;;;;;9.15;5.35;;;2.10;99.90;;;;;;459860;258;27532;-70
2022/01/31 02:58:51;;;;;;;11.57;5.57;;;2.00;99.90;;;;;;459876;258;27478;-70
2022/01/31 03:00:52;;;;;;;12.05;6.65;;;2.10;99.90;;;;;;459912;258;27526;-70
2022/01/31 03:02:53;;;;;;;10.25;5.40;;;2.10;99.90;;;;;;459894;258;27468;-70
2022/01/31 03:04:54;;;;;;;15.25;6.07;;;2.10;99.90;;;;;;459900;258;27605;-70
2022/01/31 03:06:56;;;;;;;16.25;6.07;;;2.10;99.90;;;;;;459889;258;27479;-70
2022/01/31 03:08:57;;;;;;;17.12;6.65;;;2.10;99.90;;;;;;459877;258;27467;-70
2022/01/31 03:10:58;;;;;;;11.75;6.53;;;2.10;99.90;;;;;;459882;258;27502;-70
2022/01/31 03:13:00;;;;;;;12.98;5.97;;;2.10;99.90;;;;;;459869;258;27906;-70
2022/01/31 03:15:01;;;;;;;12.18;6.10;;;2.00;99.90;;;;;;459867;258;28103;-70
2022/01/31 03:17:04;;;;;;;20.92;7.80;;;2.10;99.90;;;;;;459844;258;28074;-70
2022/01/31 03:19:04;;;;;;;19.95;6.65;;;2.10;99.90;;;;;;459870;258;27468;-70
2022/01/31 03:21:05;;;;;;;18.23;6.90;;;2.10;99.90;;;;;;459874;258;27615;-70
2022/01/31 03:23:06;;;;;;;13.32;6.05;;;2.10;99.90;;;;;;459857;258;27472;-70
2022/01/31 03:25:07;;;;;;;12.35;6.18;;;2.10;99.90;;;;;;459866;258;27541;-70
2022/01/31 03:27:08;;;;;;;16.73;6.47;;;2.10;99.90;;;;;;459858;258;27498;-70
2022/01/31 03:29:10;;;;;;;11.82;7.00;;;2.10;99.90;;;;;;459868;258;27525;-70
2022/01/31 03:31:11;;;;;;;12.43;6.10;;;2.20;99.90;;;;;;459891;258;27490;-70
2022/01/31 03:33:12;;;;;;;12.30;6.10;;;2.20;99.90;;;;;;459871;258;27924;-70
2022/01/31 03:35:13;;;;;;;11.23;5.72;;;2.20;99.90;;;;;;459868;258;27974;-70
2022/01/31 03:37:15;;;;;;;11.30;6.28;;;2.20;99.90;;;;;;459854;258;27627;-70
2022/01/31 03:39:16;;;;;;;13.73;6.70;;;2.20;99.90;;;;;;459870;258;27458;-70
2022/01/31 03:41:17;;;;;;;11.50;6.47;;;2.20;99.90;;;;;;459868;258;27578;-69
2022/01/31 03:43:18;;;;;;;15.00;5.40;;;2.10;99.90;;;;;;460303;258;27599;-70
2022/01/31 03:45:20;;;;;;;10.73;5.53;;;2.20;99.90;;;;;;459863;258;27575;-70
2022/01/31 03:47:21;;;;;;;8.20;5.25;;;2.20;99.90;;;;;;459899;258;27609;-70
2022/01/31 03:49:22;;;;;;;10.23;5.00;;;2.20;99.90;;;;;;459878;258;27523;-70
2022/01/31 03:51:23;;;;;;;17.10;5.43;;;2.20;99.90;;;;;;459878;258;27510;-70
2022/01/31 03:53:25;;;;;;;13.35;5.95;;;2.20;99.90;;;;;;459854;258;28110;-70
2022/01/31 03:55:26;;;;;;;13.77;5.82;;;2.20;99.90;;;;;;459857;258;27946;-70
2022/01/31 03:57:28;;;;;;;9.95;5.43;;;2.20;99.90;;;;;;459867;258;27587;-71
2022/01/31 03:59:28;;;;;;;11.07;5.93;;;2.20;99.90;;;;;;459695;258;27534;-70
2022/01/31 04:01:30;;;;;;;11.75;5.72;;;2.20;99.90;;;;;;459835;258;27601;-70
2022/01/31 04:03:31;;;;;;;11.68;5.70;;;2.30;99.90;;;;;;459799;258;27538;-70
2022/01/31 04:05:32;;;;;;;17.12;5.55;;;2.20;99.90;;;;;;459853;258;27494;-67
2022/01/31 04:07:33;;;;;;;12.73;6.00;;;2.30;99.90;;;;;;459857;258;27522;-67
2022/01/31 04:09:35;;;;;;;5.85;4.85;;;2.30;99.90;;;;;;459858;258;27613;-67
2022/01/31 04:11:37;;;;;;;8.60;5.25;;;2.30;99.90;;;;;;459851;258;27504;-67
2022/01/31 04:13:38;;;;;;;9.07;4.62;;;2.30;99.90;;;;;;459823;258;27601;-69
2022/01/31 04:15:39;;;;;;;14.93;5.72;;;2.30;99.90;;;;;;459874;258;27499;-70
2022/01/31 04:17:41;;;;;;;9.20;4.85;;;2.30;99.90;;;;;;459866;258;28056;-70
2022/01/31 04:19:42;;;;;;;6.20;4.68;;;2.30;99.90;;;;;;459859;258;28078;-70
2022/01/31 04:21:43;;;;;;;14.45;5.00;;;2.40;99.90;;;;;;459871;258;27945;-71
2022/01/31 04:23:46;;;;;;;6.60;4.03;;;2.40;99.90;;;;;;459839;258;27514;-70
2022/01/31 04:25:53;;;;;;;10.23;4.40;;;2.40;99.90;;;;;;459859;258;27499;-70
2022/01/31 04:27:53;;;;;;;10.85;4.78;;;2.40;99.90;;;;;;459870;258;27472;-70
2022/01/31 04:29:49;;;;;;;11.63;5.45;;;2.40;99.90;;;;;;459867;258;27492;-70
2022/01/31 04:31:51;;;;;;;13.23;4.95;;;2.40;99.90;;;;;;459832;258;27459;-70
2022/01/31 04:33:51;;;;;;;14.20;5.95;;;2.40;99.90;;;;;;459853;258;27540;-70
2022/01/31 04:35:52;;;;;;;10.65;5.10;;;2.50;99.90;;;;;;459869;258;27514;-70
2022/01/31 04:37:53;;;;;;;12.20;6.37;;;2.50;99.90;;;;;;459847;258;27528;-70
2022/01/31 04:39:54;;;;;;;9.40;4.72;;;2.40;99.90;;;;;;459858;258;28002;-70
2022/01/31 04:41:56;;;;;;;17.27;6.25;;;2.50;99.90;;;;;;459851;258;28697;-70
2022/01/31 04:44:02;;;;;;;8.75;4.50;;;2.50;99.90;;;;;;459858;258;27921;-70
2022/01/31 04:46:01;;;;;;;13.75;4.62;;;2.50;99.90;;;;;;459851;258;27593;-70
2022/01/31 04:47:59;;;;;;;10.95;4.78;;;2.50;99.90;;;;;;459857;258;27548;-70
2022/01/31 04:50:01;;;;;;;13.80;5.07;;;2.50;99.90;;;;;;459872;258;27507;-70
2022/01/31 04:52:02;;;;;;;11.38;4.75;;;2.50;99.90;;;;;;459867;258;27550;-70
2022/01/31 04:54:03;;;;;;;12.80;4.90;;;2.50;99.90;;;;;;459860;258;27530;-70
2022/01/31 04:56:04;;;;;;;13.95;4.78;;;2.60;99.90;;;;;;459861;258;27527;-70
2022/01/31 04:58:06;;;;;;;14.02;4.50;;;2.60;99.90;;;;;;459874;258;27472;-70
2022/01/31 05:00:07;;;;;;;8.15;4.68;;;2.60;99.90;;;;;;459824;258;28010;-70
2022/01/31 05:02:08;;;;;;;9.55;4.35;;;2.60;99.90;;;;;;459880;258;28053;-70
2022/01/31 05:04:09;;;;;;;7.72;4.62;;;2.60;99.90;;;;;;459864;258;27962;-70
2022/01/31 05:06:13;;;;;;;11.90;4.80;;;2.60;99.90;;;;;;459868;258;28009;-70
2022/01/31 05:08:12;;;;;;;10.73;4.95;;;2.60;99.90;;;;;;459856;258;27468;-69
2022/01/31 05:10:13;;;;;;;11.43;3.92;;;2.60;99.90;;;;;;459864;258;27555;-70
2022/01/31 05:12:16;;;;;;;12.65;5.07;;;2.50;99.90;;;;;;459876;258;27495;-70
2022/01/31 05:14:17;;;;;;;10.85;4.75;;;2.50;99.90;;;;;;459892;258;27502;-70
2022/01/31 05:16:18;;;;;;;16.37;4.78;;;2.50;99.90;;;;;;459872;258;27479;-69
2022/01/31 05:18:20;;;;;;;8.73;4.87;;;2.50;99.90;;;;;;459862;258;27974;-70
2022/01/31 05:20:21;;;;;;;11.07;4.57;;;2.50;99.90;;;;;;459905;258;28054;-70
2022/01/31 05:22:22;;;;;;;14.57;5.37;;;2.50;99.90;;;;;;459883;258;27925;-72
2022/01/31 05:24:23;;;;;;;9.05;4.37;;;2.50;99.90;;;;;;459871;258;27585;-70
2022/01/31 05:26:24;;;;;;;10.57;4.72;;;2.50;99.90;;;;;;459854;258;27511;-70
2022/01/31 05:28:26;;;;;;;10.95;5.03;;;2.40;99.90;;;;;;459884;258;27511;-69
2022/01/31 05:30:27;;;;;;;14.85;4.95;;;2.40;99.90;;;;;;459885;258;27515;-69
2022/01/31 05:32:28;;;;;;;13.80;4.80;;;2.40;99.90;;;;;;459885;258;27534;-70
2022/01/31 05:34:29;;;;;;;11.45;5.25;;;2.30;99.90;;;;;;459865;258;27511;-70
2022/01/31 05:36:31;;;;;;;10.52;4.80;;;2.30;99.90;;;;;;459855;258;27550;-69
2022/01/31 05:38:38;;;;;;;8.23;4.50;;;2.20;99.90;;;;;;459888;258;27924;-70
2022/01/31 05:40:36;;;;;;;7.97;4.18;;;2.20;99.90;;;;;;459846;258;28014;-69
2022/01/31 05:42:37;;;;;;;10.13;4.70;;;2.30;99.90;;;;;;459883;258;28017;-70
2022/01/31 05:44:38;;;;;;;9.02;4.32;;;2.30;99.90;;;;;;459876;258;27478;-70
2022/01/31 05:46:40;;;;;;;10.55;4.32;;;2.30;99.90;;;;;;459878;258;27491;-70
2022/01/31 05:48:41;;;;;;;8.90;4.05;;;2.30;99.90;;;;;;459860;258;27535;-70
2022/01/31 05:50:42;;;;;;;10.57;4.68;;;2.30;99.90;;;;;;459888;258;27464;-69
2022/01/31 05:52:43;;;;;;;9.82;4.22;;;2.30;99.90;;;;;;459880;258;27486;-69
2022/01/31 05:54:45;;;;;;;9.23;4.45;;;2.30;99.90;;;;;;459863;258;27506;-70
2022/01/31 05:56:46;;;;;;;7.95;3.87;;;2.30;99.90;;;;;;459792;258;27525;-69
2022/01/31 05:58:49;;;;;;;8.27;4.30;;;2.20;99.90;;;;;;459722;258;27958;-69
2022/01/31 06:00:48;;;;;;;8.65;5.47;;;2.20;99.90;;;;;;459716;258;27467;-70
2022/01/31 06:02:50;;;;;;;11.35;9.82;;;2.20;99.90;;;;;;459676;258;27595;-70
2022/01/31 06:04:51;;;;;;;9.30;8.35;;;2.20;99.90;;;;;;459668;258;28018;-70
2022/01/31 06:06:52;;;;;;;14.18;6.95;;;2.20;99.90;;;;;;459830;258;27950;-69
2022/01/31 06:08:53;;;;;;;6.32;5.35;;;2.20;99.90;;;;;;459904;258;27593;-70
2022/01/31 06:10:55;;;;;;;5.97;4.50;;;2.20;99.90;;;;;;459880;258;27571;-69
2022/01/31 06:12:56;;;;;;;7.35;3.90;;;2.10;99.90;;;;;;459883;258;27562;-69
2022/01/31 06:14:57;;;;;;;6.70;4.47;;;2.20;99.90;;;;;;459868;258;27561;-69
2022/01/31 06:16:58;;;;;;;8.32;4.00;;;2.10;99.90;;;;;;459867;258;27483;-69
2022/01/31 06:19:00;;;;;;;8.32;3.92;;;2.10;99.90;;;;;;459896;258;27510;-69
2022/01/31 06:21:01;;;;;;;5.68;3.90;;;2.10;99.90;;;;;;459868;258;27562;-69
2022/01/31 06:23:02;;;;;;;5.03;3.87;;;2.10;99.90;;;;;;459882;258;27581;-70
2022/01/31 06:25:04;;;;;;;6.20;3.97;;;2.10;99.90;;;;;;459853;258;27476;-69
2022/01/31 06:27:05;;;;;;;3.92;3.60;;;2.10;99.90;;;;;;459871;258;27598;-67
2022/01/31 06:29:06;;;;;;;3.72;3.30;;;2.10;99.90;;;;;;459880;258;27507;-67
2022/01/31 06:31:07;;;;;;;5.03;4.20;;;2.10;99.90;;;;;;459875;258;28034;-67
2022/01/31 06:33:08;;;;;;;4.00;3.70;;;2.00;99.90;;;;;;459884;258;28021;-67
2022/01/31 06:35:10;;;;;;;4.60;3.45;;;2.00;99.90;;;;;;459895;258;28703;-67
2022/01/31 06:37:11;;;;;;;5.50;3.08;;;2.10;99.90;;;;;;459901;258;27538;-67
2022/01/31 06:39:13;;;;;;;4.47;3.03;;;2.10;99.90;;;;;;459896;258;27609;-67
2022/01/31 06:41:16;;;;;;;4.50;2.90;;;2.10;99.90;;;;;;459888;258;27548;-67
2022/01/31 06:43:15;;;;;;;3.37;3.15;;;2.10;99.90;;;;;;459845;258;27534;-66
2022/01/31 06:45:16;;;;;;;3.47;3.17;;;2.20;99.90;;;;;;459854;258;27487;-67
2022/01/31 06:47:19;;;;;;;4.65;3.22;;;2.20;99.90;;;;;;459889;258;27570;-66
2022/01/31 06:49:18;;;;;;;4.57;3.78;;;2.20;99.90;;;;;;459856;258;27586;-67
2022/01/31 06:51:20;;;;;;;3.55;3.20;;;2.20;99.90;;;;;;459876;258;27579;-67
2022/01/31 06:53:26;;;;;;;3.75;3.30;;;2.20;99.90;;;;;;459858;258;27531;-67
2022/01/31 06:55:22;;;;;;;4.00;3.10;;;2.30;99.90;;;;;;459872;258;27888;-67
2022/01/31 06:57:25;;;;;;;3.80;3.20;;;2.30;99.90;;;;;;459897;258;27932;-67
2022/01/31 06:59:25;;;;;;;3.42;3.10;;;2.30;99.90;;;;;;459879;258;28111;-67
2022/01/31 07:01:26;;;;;;;5.20;3.22;;;2.30;99.90;;;;;;459874;258;27916;-67
2022/01/31 07:03:27;;;;;;;4.10;3.00;;;2.40;99.90;;;;;;459863;258;28138;-69
2022/01/31 07:05:28;;;;;;;3.72;3.28;;;2.40;99.90;;;;;;459890;258;27635;-69
2022/01/31 07:07:30;;;;;;;4.30;2.80;;;2.40;99.90;;;;;;459887;258;27464;-69
2022/01/31 07:09:31;;;;;;;4.12;3.10;;;2.40;99.90;;;;;;459850;258;27497;-69
2022/01/31 07:11:37;;;;;;;4.15;3.33;;;2.40;99.90;;;;;;459857;258;27524;-69
2022/01/31 07:15:35;;;;;;;5.18;3.58;;;2.50;99.90;;;;;;459922;258;27583;-69
2022/01/31 07:17:36;;;;;;;6.45;4.10;;;2.50;99.90;;;;;;459904;258;27462;-69
2022/01/31 07:19:40;;;;;;;5.22;3.90;;;2.50;99.90;;;;;;459897;258;27508;-69
2022/01/31 07:21:48;;;;;;;5.40;3.97;;;2.50;99.90;;;;;;459863;258;28047;-69
2022/01/31 07:24:04;;;;;;;4.78;4.10;;;2.50;99.90;;;;;;459861;258;27552;-69
2022/01/31 07:25:53;;;;;;;4.75;4.25;;;2.60;99.90;;;;;;459890;258;27841;-69
2022/01/31 07:27:54;;;;;;;6.78;4.55;;;2.60;99.90;;;;;;459890;258;27474;-69
2022/01/31 07:29:55;;;;;;;3.83;3.47;;;2.70;99.90;;;;;;459881;258;27975;-69
2022/01/31 07:31:56;;;;;;;6.15;3.35;;;2.70;99.90;;;;;;459876;258;27930;-69
2022/01/31 07:33:58;;;;;;;4.05;3.37;;;2.70;99.90;;;;;;459844;258;29103;-69
2022/01/31 07:35:59;;;;;;;5.45;3.42;;;2.70;99.90;;;;;;459893;258;28125;-69
2022/01/31 07:38:00;;;;;;;5.87;3.60;;;2.70;99.90;;;;;;459849;258;27474;-69
2022/01/31 07:40:01;;;;;;;4.80;3.15;;;2.70;99.90;;;;;;459882;258;27579;-69
2022/01/31 07:42:03;;;;;;;4.75;4.10;;;2.70;99.90;;;;;;459876;258;27499;-69
2022/01/31 07:44:04;;;;;;;5.03;4.00;;;2.80;99.90;;;;;;459872;258;27692;-69
2022/01/31 07:46:05;;;;;;;4.37;3.28;;;2.80;99.90;;;;;;459887;258;27553;-69
2022/01/31 07:48:06;;;;;;;3.37;3.10;;;2.80;99.90;;;;;;459886;258;27458;-69
2022/01/31 07:50:08;;;;;;;5.75;3.00;;;2.80;99.90;;;;;;459892;258;27621;-69
2022/01/31 07:52:09;;;;;;;4.32;3.60;;;2.80;99.90;;;;;;459851;258;27468;-69
2022/01/31 07:54:11;;;;;;;5.37;4.70;;;2.80;99.90;;;;;;459850;258;27531;-69
2022/01/31 07:56:14;;;;;;;6.90;5.15;;;2.90;99.90;;;;;;459871;258;27578;-70
2022/01/31 07:58:13;;;;;;;5.28;4.37;;;2.90;99.90;;;;;;459857;258;27920;-69
2022/01/31 08:00:14;;;;;;;5.00;4.50;;;2.90;99.90;;;;;;459856;258;28066;-69
2022/01/31 08:02:15;;;;;;;6.80;4.10;;;2.90;99.90;;;;;;459847;258;29097;-69
2022/01/31 08:04:16;;;;;;;6.03;3.90;;;2.90;99.90;;;;;;459878;258;29060;-69
2022/01/31 08:06:18;;;;;;;4.05;3.65;;;3.00;99.90;;;;;;459866;258;27515;-69
2022/01/31 08:08:19;;;;;;;8.07;3.92;;;3.00;99.90;;;;;;459862;258;27531;-69
2022/01/31 08:10:20;;;;;;;4.95;3.80;;;3.10;99.90;;;;;;459868;258;27499;-69
2022/01/31 08:12:23;;;;;;;9.02;3.95;;;3.10;99.90;;;;;;459850;258;27478;-69
2022/01/31 08:14:23;;;;;;;5.70;3.85;;;3.10;99.90;;;;;;459888;258;27462;-69
2022/01/31 08:16:24;;;;;;;3.58;3.28;;;3.10;99.90;;;;;;459873;258;27506;-69
2022/01/31 08:18:25;;;;;;;4.45;3.80;;;3.20;99.90;;;;;;459866;258;27505;-69
2022/01/31 08:20:27;;;;;;;5.93;3.67;;;3.20;99.90;;;;;;459868;258;27519;-70
2022/01/31 08:22:29;;;;;;;5.05;3.90;;;3.20;99.90;;;;;;459863;258;27539;-69
2022/01/31 08:24:30;;;;;;;6.68;5.20;;;3.30;99.90;;;;;;459874;258;27515;-70
2022/01/31 08:26:31;;;;;;;9.35;8.15;;;3.40;99.90;;;;;;459862;258;27947;-70
2022/01/31 08:28:39;;;;;;;8.15;7.35;;;3.40;99.90;;;;;;459866;258;28078;-69
2022/01/31 08:30:47;;;;;;;6.80;6.20;;;3.40;99.90;;;;;;459865;258;27606;-69
2022/01/31 08:32:45;;;;;;;5.78;4.87;;;3.40;99.90;;;;;;459884;258;28386;-69
2022/01/31 08:36:59;;;;;;;4.55;4.05;;;3.40;99.90;;;;;;459856;258;27510;-69
2022/01/31 08:39:00;;;;;;;4.53;3.80;;;3.30;99.90;;;;;;460342;258;27636;-69
2022/01/31 08:41:01;;;;;;;4.40;4.00;;;3.30;99.90;;;;;;459874;258;27549;-69
2022/01/31 08:43:02;;;;;;;4.30;3.92;;;3.30;99.90;;;;;;459864;258;27495;-69
2022/01/31 08:45:04;;;;;;;5.35;4.15;;;3.30;99.90;;;;;;459858;258;27574;-70
2022/01/31 08:47:05;;;;;;;4.72;3.45;;;3.30;99.90;;;;;;459851;258;27587;-70
2022/01/31 08:49:06;;;;;;;5.72;3.58;;;3.30;99.90;;;;;;459855;258;28508;-69
2022/01/31 08:51:07;;;;;;;3.33;3.00;;;3.30;99.90;;;;;;459850;258;28783;-69
2022/01/31 08:53:09;;;;;;;5.05;3.00;;;3.30;99.90;;;;;;459858;258;28088;-69
2022/01/31 08:55:11;;;;;;;3.67;3.28;;;3.30;99.90;;;;;;459860;258;28030;-69
2022/01/31 08:57:11;;;;;;;3.37;2.85;;;3.30;99.90;;;;;;459849;258;27505;-69
2022/01/31 08:59:14;;;;;;;3.28;2.70;;;3.40;99.90;;;;;;459875;258;27523;-69
2022/01/31 09:01:17;;;;;;;5.00;3.45;;;3.40;99.90;;;;;;459858;258;27554;-70
2022/01/31 09:05:16;;;;;;;3.20;2.90;;;3.50;99.90;;;;;;459863;258;27564;-70
2022/01/31 09:07:18;;;;;;;3.95;3.10;;;3.60;99.90;;;;;;459831;258;27583;-70
2022/01/31 09:09:19;;;;;;;6.07;3.00;;;3.60;99.90;;;;;;459887;258;27598;-69
2022/01/31 09:11:20;;;;;;;3.45;3.15;;;3.60;99.90;;;;;;459867;258;27471;-69
2022/01/31 09:13:21;;;;;;;3.60;3.30;;;3.50;99.90;;;;;;459870;258;27503;-70
2022/01/31 09:15:22;;;;;;;4.65;3.30;;;3.50;99.90;;;;;;459852;258;27474;-70
2022/01/31 09:17:24;;;;;;;3.67;3.35;;;3.60;99.90;;;;;;459846;258;27942;-70
2022/01/31 09:19:26;;;;;;;3.20;2.90;;;3.70;99.90;;;;;;459882;258;28112;-69
2022/01/31 09:21:26;;;;;;;3.90;2.67;;;3.70;99.90;;;;;;459860;258;27991;-70
2022/01/31 09:23:27;;;;;;;3.50;3.20;;;3.70;99.90;;;;;;459858;258;28024;-69
2022/01/31 09:25:29;;;;;;;7.70;4.40;;;3.70;99.90;;;;;;459869;258;27483;-69
2022/01/31 09:27:30;;;;;;;3.92;3.20;;;3.70;99.90;;;;;;459899;258;27470;-70
2022/01/31 09:29:31;;;;;;;5.00;3.60;;;3.70;99.90;;;;;;459908;258;27609;-69
2022/01/31 09:31:33;;;;;;;4.97;4.15;;;3.80;99.90;;;;;;459880;258;27545;-69
2022/01/31 09:33:34;;;;;;;4.70;3.75;;;3.90;99.90;;;;;;459862;258;27487;-70
2022/01/31 09:35:35;;;;;;;4.80;3.70;;;4.00;99.90;;;;;;459842;258;27515;-70
2022/01/31 09:37:36;;;;;;;7.10;3.85;;;4.00;99.90;;;;;;459883;258;27562;-70
2022/01/31 09:39:37;;;;;;;7.50;3.83;;;4.10;99.90;;;;;;459850;258;27532;-70
2022/01/31 09:41:41;;;;;;;6.60;3.87;;;4.10;99.90;;;;;;459877;258;27476;-70
2022/01/31 09:43:58;;;;;;;5.57;3.60;;;4.00;99.90;;;;;;459852;258;27499;-67
2022/01/31 09:49:59;;;;;;;5.40;3.60;;;3.90;99.90;;;;;;459844;258;27540;-69
2022/01/31 09:52:00;;;;;;;7.37;4.43;;;4.00;99.90;;;;;;459854;258;27572;-70
2022/01/31 09:54:01;;;;;;;7.03;3.75;;;4.00;99.90;;;;;;459856;258;27463;-70
2022/01/31 09:56:02;;;;;;;7.47;4.20;;;4.00;99.90;;;;;;459848;258;27552;-69
2022/01/31 09:58:04;;;;;;;9.43;3.40;;;4.00;99.90;;;;;;459870;258;27486;-69
2022/01/31 10:00:05;;;;;;;6.82;4.03;;;4.00;99.90;;;;;;459886;258;27834;-69
2022/01/31 10:02:06;;;;;;;5.00;3.10;;;3.90;99.90;;;;;;459848;258;27531;-70
2022/01/31 10:04:09;;;;;;;4.50;3.15;;;3.90;99.90;;;;;;459853;258;27551;-70
2022/01/31 10:06:09;;;;;;;5.82;3.62;;;4.00;99.90;;;;;;459848;258;27922;-69
2022/01/31 10:08:10;;;;;;;5.28;3.30;;;4.00;99.90;;;;;;459890;258;27999;-70
2022/01/31 10:10:11;;;;;;;8.38;3.67;;;4.00;99.90;;;;;;459875;258;29035;-69
2022/01/31 10:16:34;;;;;;;4.62;3.60;;;4.00;99.90;;;;;;459872;258;27938;-69
2022/01/31 10:18:34;;;;;;;4.35;3.12;;;4.00;99.90;;;;;;460347;258;28199;-68
2022/01/31 10:20:35;;;;;;;9.38;3.15;;;4.10;99.90;;;;;;459867;258;28020;-67
2022/01/31 10:22:38;;;;;;;6.25;3.03;;;4.10;99.90;;;;;;459868;258;27498;-67
2022/01/31 10:24:38;;;;;;;7.68;3.12;;;4.20;99.90;;;;;;459879;258;27599;-67
2022/01/31 10:26:39;;;;;;;6.20;2.95;;;4.10;99.90;;;;;;459885;258;27460;-68
2022/01/31 10:28:40;;;;;;;4.70;2.92;;;4.10;99.90;;;;;;459868;258;27500;-68
2022/01/31 10:30:42;;;;;;;9.98;3.75;;;4.10;99.90;;;;;;459866;258;27454;-68
2022/01/31 10:32:43;;;;;;;3.58;3.00;;;4.10;99.90;;;;;;459854;258;27591;-68
2022/01/31 10:34:44;;;;;;;3.35;2.45;;;4.10;99.90;;;;;;459868;258;27587;-67
2022/01/31 10:36:45;;;;;;;4.57;3.15;;;4.10;99.90;;;;;;459856;258;27505;-68
2022/01/31 10:38:48;;;;;;;3.10;2.62;;;4.20;99.90;;;;;;459862;258;27507;-68
2022/01/31 10:45:27;;;;;;;6.65;2.72;;;4.20;99.90;;;;;;460314;258;27566;-68
2022/01/31 10:52:04;;;;;;;4.30;2.70;;;4.30;99.90;;;;;;451568;263;28183;-68
2022/01/31 10:54:10;;;;;;;4.07;2.60;;;4.30;99.90;;;;;;451614;261;28180;-68
2022/01/31 10:56:06;;;;;;;4.45;2.50;;;4.40;99.90;;;;;;451637;262;27729;-68
2022/01/31 10:58:08;;;;;;;5.05;2.30;;;4.40;99.90;;;;;;451584;263;27567;-68
2022/01/31 11:00:09;;;;;;;5.20;2.58;;;4.50;99.90;;;;;;451583;263;27608;-68